createdAt,value
2023-08-12T00:00:08.350Z,4.80
2023-08-12T00:02:36.098Z,5.20
2023-08-12T00:05:04.201Z,5.10
2023-08-12T00:07:31.154Z,4.80
2023-08-12T00:09:57.805Z,5.40
2023-08-12T00:12:24.290Z,4.60
2023-08-12T00:14:51.150Z,5.50
2023-08-12T00:17:18.151Z,5.30
2023-08-12T00:19:45.178Z,5.30
2023-08-12T00:22:11.596Z,5.10
2023-08-12T00:24:38.292Z,5.00
2023-08-12T00:27:04.926Z,5.90
2023-08-12T00:29:31.484Z,5.20
2023-08-12T00:31:59.706Z,5.40
2023-08-12T00:34:26.292Z,5.20
2023-08-12T00:36:52.976Z,5.00
2023-08-12T00:39:19.865Z,5.10
2023-08-12T00:41:47.371Z,5.90
2023-08-12T00:44:13.962Z,5.90
2023-08-12T00:46:41.506Z,5.10
2023-08-12T00:49:09.813Z,5.20
2023-08-12T00:51:36.526Z,5.20
2023-08-12T00:54:03.411Z,4.80
2023-08-12T00:56:30.105Z,5.10
2023-08-12T00:59:02.350Z,4.90
2023-08-12T01:01:29.104Z,5.10
2023-08-12T01:03:56.047Z,5.50
2023-08-12T01:06:22.802Z,5.70
2023-08-12T01:08:49.517Z,5.70
2023-08-12T01:11:44.572Z,6.20
2023-08-12T01:14:30.042Z,5.30
2023-08-12T01:17:00.850Z,5.20
2023-08-12T01:22:00.602Z,5.90
2023-08-12T01:24:27.210Z,5.50
2023-08-12T01:26:55.984Z,5.90
2023-08-12T01:29:22.671Z,6.00
2023-08-12T01:31:52.966Z,5.90
2023-08-12T01:34:32.424Z,6.10
2023-08-12T01:36:59.115Z,5.80
2023-08-12T01:39:26.561Z,6.00
2023-08-12T01:41:53.635Z,6.00
2023-08-12T01:44:20.227Z,5.60
2023-08-12T01:46:46.735Z,6.00
2023-08-12T01:49:13.478Z,5.50
2023-08-12T01:51:40.329Z,6.10
2023-08-12T01:54:06.913Z,6.30
2023-08-12T01:56:34.162Z,6.30
2023-08-12T01:59:00.889Z,6.60
2023-08-12T02:01:27.278Z,6.20
2023-08-12T02:03:54.195Z,6.50
2023-08-12T02:06:21.113Z,6.50
2023-08-12T02:08:47.833Z,6.90
2023-08-12T02:11:14.208Z,6.10
2023-08-12T02:13:43.553Z,6.60
2023-08-12T02:16:10.174Z,5.30
2023-08-12T02:18:37.351Z,6.90
2023-08-12T02:21:03.837Z,6.20
2023-08-12T02:23:30.578Z,6.50
2023-08-12T02:25:57.251Z,6.90
2023-08-12T02:28:24.093Z,6.10
2023-08-12T02:30:50.753Z,6.30
2023-08-12T02:33:17.547Z,5.90
2023-08-12T02:35:44.110Z,6.50
2023-08-12T02:38:10.750Z,6.50
2023-08-12T02:40:37.425Z,6.20
2023-08-12T02:43:04.048Z,6.90
2023-08-12T02:45:30.998Z,6.40
2023-08-12T02:47:57.762Z,6.70
2023-08-12T02:50:24.323Z,6.80
2023-08-12T02:52:50.767Z,6.40
2023-08-12T02:55:17.531Z,7.10
2023-08-12T02:57:44.054Z,7.00
2023-08-12T03:00:12.718Z,7.00
2023-08-12T03:02:43.001Z,7.10
2023-08-12T03:05:09.940Z,6.90
2023-08-12T03:07:36.630Z,7.30
2023-08-12T03:10:03.677Z,7.30
2023-08-12T03:12:30.810Z,6.90
2023-08-12T03:14:57.577Z,7.20
2023-08-12T03:17:24.278Z,6.70
2023-08-12T03:19:54.756Z,7.90
2023-08-12T03:22:21.560Z,7.40
2023-08-12T03:24:49.140Z,7.50
2023-08-12T03:27:15.866Z,7.80
2023-08-12T03:29:42.851Z,7.30
2023-08-12T03:32:09.646Z,7.00
2023-08-12T03:34:36.323Z,8.00
2023-08-12T03:37:04.282Z,7.90
2023-08-12T03:39:31.107Z,7.80
2023-08-12T03:41:58.968Z,7.20
2023-08-12T03:44:26.647Z,7.90
2023-08-12T03:46:53.104Z,8.00
2023-08-12T03:49:22.222Z,7.80
2023-08-12T03:51:49.757Z,8.00
2023-08-12T03:54:16.146Z,8.90
2023-08-12T03:56:42.655Z,7.90
2023-08-12T03:59:09.267Z,7.80
2023-08-12T04:01:37.627Z,8.10
2023-08-12T04:04:05.134Z,7.50
2023-08-12T04:06:31.888Z,8.20
2023-08-12T04:08:58.406Z,7.30
2023-08-12T04:11:25.034Z,7.80
2023-08-12T04:13:51.689Z,8.10
2023-08-12T04:16:18.548Z,7.70
2023-08-12T04:18:44.987Z,8.00
2023-08-12T04:21:13.002Z,7.90
2023-08-12T04:23:39.514Z,7.60
2023-08-12T04:26:06.298Z,7.90
2023-08-12T04:28:32.828Z,8.30
2023-08-12T04:30:59.881Z,8.40
2023-08-12T04:33:26.497Z,8.80
2023-08-12T04:35:53.983Z,8.00
2023-08-12T04:38:21.228Z,8.20
2023-08-12T04:40:48.803Z,7.50
2023-08-12T04:43:15.528Z,7.80
2023-08-12T04:45:48.022Z,8.40
2023-08-12T04:48:17.663Z,8.00
2023-08-12T04:50:44.502Z,8.20
2023-08-12T04:53:11.165Z,8.00
2023-08-12T04:55:38.839Z,7.80
2023-08-12T04:58:05.601Z,8.60
2023-08-12T05:00:33.286Z,8.00
2023-08-12T05:03:00.648Z,8.60
2023-08-12T05:05:27.709Z,8.00
2023-08-12T05:07:54.210Z,7.70
2023-08-12T05:10:20.933Z,7.90
2023-08-12T05:12:49.395Z,8.00
2023-08-12T05:15:16.103Z,7.80
2023-08-12T05:17:43.146Z,7.80
2023-08-12T05:20:11.519Z,7.40
2023-08-12T05:22:38.321Z,7.80
2023-08-12T05:25:05.814Z,6.80
2023-08-12T05:27:32.393Z,7.60
2023-08-12T05:29:58.782Z,7.50
2023-08-12T05:32:25.269Z,7.60
2023-08-12T05:34:55.701Z,7.50
2023-08-12T05:37:22.557Z,6.50
2023-08-12T05:39:49.053Z,6.50
2023-08-12T05:42:18.913Z,6.90
2023-08-12T05:44:45.696Z,6.20
2023-08-12T05:47:14.368Z,6.40
2023-08-12T05:49:44.448Z,5.70
2023-08-12T05:52:14.658Z,5.60
2023-08-12T05:54:41.436Z,6.20
2023-08-12T05:57:07.859Z,5.20
2023-08-12T05:59:35.030Z,5.50
2023-08-12T06:02:01.916Z,5.40
2023-08-12T06:04:29.556Z,5.40
2023-08-12T06:06:56.178Z,5.30
2023-08-12T06:09:23.025Z,5.40
2023-08-12T06:11:49.594Z,5.40
2023-08-12T06:14:16.217Z,4.80
2023-08-12T06:16:43.043Z,5.00
2023-08-12T06:19:09.979Z,4.70
2023-08-12T06:21:36.561Z,4.90
2023-08-12T06:24:03.378Z,4.70
2023-08-12T06:26:30.494Z,4.80
2023-08-12T06:28:57.176Z,4.70
2023-08-12T06:31:23.734Z,4.90
2023-08-12T06:33:50.215Z,4.70
2023-08-12T06:36:16.781Z,4.70
2023-08-12T06:38:43.548Z,5.10
2023-08-12T06:41:10.104Z,4.40
2023-08-12T06:43:37.197Z,4.80
2023-08-12T06:46:03.761Z,4.70
2023-08-12T06:48:30.532Z,5.20
2023-08-12T06:50:59.072Z,4.20
2023-08-12T06:53:26.741Z,4.80
2023-08-12T06:55:53.273Z,4.40
2023-08-12T06:58:19.721Z,4.60
2023-08-12T07:00:46.194Z,4.40
2023-08-12T07:03:13.039Z,5.20
2023-08-12T07:05:39.524Z,4.60
2023-08-12T07:08:06.188Z,4.40
2023-08-12T07:10:33.034Z,4.90
2023-08-12T07:12:59.730Z,4.80
2023-08-12T07:15:29.524Z,4.40
2023-08-12T07:17:58.149Z,5.00
2023-08-12T07:20:25.581Z,4.40
2023-08-12T07:22:52.274Z,5.00
2023-08-12T07:25:18.838Z,4.30
2023-08-12T07:27:45.436Z,3.90
2023-08-12T07:30:12.313Z,4.00
2023-08-12T07:32:39.819Z,4.10
2023-08-12T07:35:06.425Z,3.70
2023-08-12T07:37:33.046Z,3.40
2023-08-12T07:39:59.656Z,3.20
2023-08-12T07:42:27.083Z,3.60
2023-08-12T07:44:53.653Z,3.40
2023-08-12T07:47:20.094Z,3.60
2023-08-12T07:49:46.606Z,3.30
2023-08-12T07:52:13.510Z,3.70
2023-08-12T07:54:40.524Z,3.40
2023-08-12T07:57:07.105Z,3.40
2023-08-12T07:59:33.605Z,3.60
2023-08-12T08:02:00.037Z,4.00
2023-08-12T08:04:26.772Z,4.10
2023-08-12T08:06:53.686Z,3.80
2023-08-12T08:09:20.355Z,3.50
2023-08-12T08:11:46.937Z,4.00
2023-08-12T08:14:13.570Z,3.70
2023-08-12T08:16:42.232Z,3.60
2023-08-12T08:19:10.322Z,3.70
2023-08-12T08:21:39.651Z,4.00
2023-08-12T08:24:06.612Z,4.10
2023-08-12T08:26:33.129Z,3.40
2023-08-12T08:28:59.761Z,3.60
2023-08-12T08:31:26.980Z,3.80
2023-08-12T08:33:53.483Z,3.50
2023-08-12T08:36:20.163Z,3.60
2023-08-12T08:38:46.588Z,3.50
2023-08-12T08:41:13.023Z,4.00
2023-08-12T08:43:40.620Z,3.50
2023-08-12T08:46:07.541Z,3.80
2023-08-12T08:48:35.775Z,4.10
2023-08-12T08:51:04.671Z,4.00
2023-08-12T08:53:34.245Z,3.70
2023-08-12T08:56:02.061Z,3.70
2023-08-12T08:58:29.234Z,3.50
2023-08-12T09:00:55.645Z,4.00
2023-08-12T09:03:22.111Z,3.80
2023-08-12T09:05:48.510Z,3.60
2023-08-12T09:08:14.980Z,3.60
2023-08-12T09:10:41.544Z,3.70
2023-08-12T09:13:09.484Z,3.60
2023-08-12T09:15:36.056Z,3.70
2023-08-12T09:18:04.970Z,3.40
2023-08-12T09:20:31.531Z,3.30
2023-08-12T09:22:59.009Z,3.30
2023-08-12T09:25:30.061Z,3.40
2023-08-12T09:27:59.208Z,2.90
2023-08-12T09:30:28.908Z,2.90
2023-08-12T09:33:01.067Z,3.20
2023-08-12T09:35:41.459Z,3.30
2023-08-12T09:38:13.526Z,3.30
2023-08-12T09:40:40.379Z,3.00
2023-08-12T09:43:06.881Z,3.10
2023-08-12T09:45:35.140Z,2.70
2023-08-12T09:48:04.198Z,3.10
2023-08-12T09:50:31.104Z,2.90
2023-08-12T09:52:57.648Z,3.10
2023-08-12T09:55:25.275Z,3.00
2023-08-12T09:57:55.468Z,3.20
2023-08-12T10:00:22.623Z,2.60
2023-08-12T10:02:51.935Z,2.90
2023-08-12T10:05:23.327Z,2.70
2023-08-12T10:07:50.050Z,2.90
2023-08-12T10:10:16.978Z,2.40
2023-08-12T10:12:43.588Z,2.70
2023-08-12T10:15:10.693Z,2.70
2023-08-12T10:17:43.181Z,3.00
2023-08-12T10:20:14.810Z,3.00
2023-08-12T10:25:11.635Z,2.70
2023-08-12T10:27:38.431Z,2.80
2023-08-12T10:30:06.179Z,3.00
2023-08-12T10:32:33.569Z,2.80
2023-08-12T10:35:00.186Z,3.00
2023-08-12T10:37:26.933Z,2.80
2023-08-12T10:39:54.135Z,2.80
2023-08-12T10:45:54.013Z,3.00
2023-08-12T10:48:25.668Z,2.80
2023-08-12T10:50:56.115Z,2.60
2023-08-12T10:53:24.225Z,3.00
2023-08-12T10:55:51.853Z,2.90
2023-08-12T10:58:27.373Z,3.00
2023-08-12T11:00:58.436Z,2.60
2023-08-12T11:03:25.868Z,2.80
2023-08-12T11:05:56.896Z,2.60
2023-08-12T11:08:28.027Z,2.20
2023-08-12T11:10:57.340Z,3.00
2023-08-12T11:13:29.323Z,2.60
2023-08-12T11:16:07.660Z,3.20
2023-08-12T11:18:35.057Z,2.30
2023-08-12T11:21:02.645Z,2.70
2023-08-12T11:23:29.951Z,2.90
2023-08-12T11:25:57.262Z,2.90
2023-08-12T11:28:24.807Z,2.70
2023-08-12T11:30:52.356Z,3.30
2023-08-12T11:33:19.954Z,5.70
2023-08-12T11:35:47.373Z,2.60
2023-08-12T11:38:15.276Z,2.70
2023-08-12T11:40:42.581Z,2.60
2023-08-12T11:43:09.936Z,2.50
2023-08-12T11:45:39.776Z,2.60
2023-08-12T11:48:07.351Z,3.00
2023-08-12T11:50:34.664Z,2.80
2023-08-12T11:53:02.169Z,2.90
2023-08-12T11:55:30.062Z,2.70
2023-08-12T11:57:59.068Z,2.90
2023-08-12T12:00:26.667Z,2.60
2023-08-12T12:02:55.635Z,2.50
2023-08-12T12:05:31.315Z,2.90
2023-08-12T12:08:00.161Z,3.10
2023-08-12T12:10:35.056Z,2.90
2023-08-12T12:13:04.811Z,3.20
2023-08-12T12:15:33.035Z,3.00
2023-08-12T12:18:00.482Z,3.10
2023-08-12T12:20:30.796Z,2.90
2023-08-12T12:22:58.258Z,3.10
2023-08-12T12:25:25.626Z,3.00
2023-08-12T12:27:54.332Z,3.00
2023-08-12T12:30:21.849Z,3.00
2023-08-12T12:32:49.456Z,3.40
2023-08-12T12:35:17.347Z,3.30
2023-08-12T12:37:45.062Z,3.00
2023-08-12T12:40:12.682Z,3.00
2023-08-12T12:42:40.090Z,3.20
2023-08-12T12:45:08.968Z,3.30
2023-08-12T12:47:36.361Z,3.00
2023-08-12T12:50:03.903Z,3.80
2023-08-12T12:52:31.184Z,3.40
2023-08-12T12:54:58.820Z,2.90
2023-08-12T12:57:26.361Z,3.20
2023-08-12T12:59:53.818Z,3.40
2023-08-12T13:02:21.202Z,2.60
2023-08-12T13:04:48.543Z,3.60
2023-08-12T13:07:16.392Z,2.80
2023-08-12T13:09:43.716Z,2.90
2023-08-12T13:12:11.213Z,2.90
2023-08-12T13:14:38.882Z,3.40
2023-08-12T13:17:06.450Z,3.10
2023-08-12T13:19:33.873Z,3.20
2023-08-12T13:22:03.325Z,3.00
2023-08-12T13:24:30.735Z,2.90
2023-08-12T13:27:00.177Z,3.50
2023-08-12T13:29:27.918Z,4.20
2023-08-12T13:31:55.303Z,3.60
2023-08-12T13:34:22.727Z,3.20
2023-08-12T13:36:50.120Z,3.10
2023-08-12T13:39:17.580Z,3.80
2023-08-12T13:41:45.113Z,3.50
2023-08-12T13:44:12.500Z,3.30
2023-08-12T13:46:39.808Z,3.30
2023-08-12T13:49:07.276Z,3.30
2023-08-12T13:51:34.605Z,3.40
2023-08-12T13:54:01.911Z,3.20
2023-08-12T13:56:31.450Z,3.10
2023-08-12T13:58:59.904Z,3.40
2023-08-12T14:01:27.428Z,3.20
2023-08-12T14:03:54.899Z,3.40
2023-08-12T14:06:22.608Z,3.20
2023-08-12T14:08:50.138Z,3.60
2023-08-12T14:11:17.513Z,3.30
2023-08-12T14:13:46.300Z,3.40
2023-08-12T14:16:13.691Z,3.20
2023-08-12T14:18:41.050Z,3.50
2023-08-12T14:21:08.451Z,3.90
2023-08-12T14:23:35.957Z,3.70
2023-08-12T14:26:03.362Z,3.90
2023-08-12T14:28:30.712Z,3.30
2023-08-12T14:30:58.230Z,3.30
2023-08-12T14:33:26.319Z,3.90
2023-08-12T14:35:55.571Z,3.20
2023-08-12T14:38:23.104Z,3.60
2023-08-12T14:40:50.529Z,3.20
2023-08-12T14:43:17.978Z,3.40
2023-08-12T14:45:46.216Z,3.30
2023-08-12T14:48:13.827Z,3.30
2023-08-12T14:50:41.195Z,3.50
2023-08-12T14:53:08.634Z,3.50
2023-08-12T14:55:36.150Z,3.60
2023-08-12T14:58:03.582Z,3.40
2023-08-12T15:00:31.845Z,3.30
2023-08-12T15:03:00.107Z,3.60
2023-08-12T15:05:27.488Z,3.80
2023-08-12T15:07:54.799Z,3.70
2023-08-12T15:10:22.161Z,4.30
2023-08-12T15:12:49.576Z,4.30
2023-08-12T15:15:16.995Z,4.10
2023-08-12T15:17:45.228Z,4.10
2023-08-12T15:20:12.593Z,4.20
2023-08-12T15:22:40.416Z,4.10
2023-08-12T15:25:09.609Z,4.20
2023-08-12T15:27:37.302Z,4.10
2023-08-12T15:30:04.983Z,3.90
2023-08-12T15:32:33.126Z,4.00
2023-08-12T15:35:01.149Z,4.30
2023-08-12T15:37:28.535Z,4.10
2023-08-12T15:39:55.877Z,5.40
2023-08-12T15:42:23.460Z,4.40
2023-08-12T15:44:50.797Z,4.30
2023-08-12T15:47:18.209Z,4.00
2023-08-12T15:49:45.528Z,3.80
2023-08-12T15:52:12.915Z,3.90
2023-08-12T15:54:40.389Z,4.20
2023-08-12T15:57:07.784Z,4.40
2023-08-12T15:59:35.184Z,4.00
2023-08-12T16:02:02.686Z,4.40
2023-08-12T16:04:30.065Z,4.20
2023-08-12T16:06:57.489Z,4.10
2023-08-12T16:09:26.261Z,4.50
2023-08-12T16:11:55.448Z,4.20
2023-08-12T16:14:23.062Z,5.10
2023-08-12T16:16:50.442Z,3.90
2023-08-12T16:19:18.009Z,4.00
2023-08-12T16:21:45.398Z,3.70
2023-08-12T16:24:12.812Z,3.80
2023-08-12T16:26:40.132Z,3.70
2023-08-12T16:29:07.450Z,3.90
2023-08-12T16:31:35.933Z,3.90
2023-08-12T16:34:05.018Z,4.00
2023-08-12T16:36:32.362Z,4.10
2023-08-12T16:38:59.805Z,3.90
2023-08-12T16:41:27.255Z,3.80
2023-08-12T16:43:54.594Z,3.90
2023-08-12T16:46:23.814Z,3.90
2023-08-12T16:48:51.957Z,4.30
2023-08-12T16:51:20.796Z,4.10
2023-08-12T16:53:48.172Z,3.80
2023-08-12T16:56:15.551Z,4.10
2023-08-12T16:58:42.872Z,3.90
2023-08-12T17:01:10.330Z,3.50
2023-08-12T17:03:37.804Z,4.60
2023-08-12T17:06:05.587Z,4.20
2023-08-12T17:08:33.047Z,3.90
2023-08-12T17:11:04.680Z,4.20
2023-08-12T17:13:32.078Z,3.80
2023-08-12T17:15:59.706Z,4.00
2023-08-12T17:18:27.124Z,4.00
2023-08-12T17:20:54.436Z,3.90
2023-08-12T17:23:22.926Z,4.30
2023-08-12T17:25:50.333Z,4.50
2023-08-12T17:28:17.661Z,4.40
2023-08-12T17:30:45.170Z,4.50
2023-08-12T17:33:12.539Z,4.60
2023-08-12T17:35:39.887Z,4.50
2023-08-12T17:38:07.745Z,5.10
2023-08-12T17:40:35.202Z,4.20
2023-08-12T17:43:02.930Z,4.60
2023-08-12T17:45:30.414Z,4.70
2023-08-12T17:47:59.119Z,4.90
2023-08-12T17:50:27.413Z,5.00
2023-08-12T17:52:55.401Z,4.40
2023-08-12T17:55:22.918Z,4.80
2023-08-12T17:57:50.220Z,5.00
2023-08-12T18:00:18.527Z,4.80
2023-08-12T18:02:46.110Z,5.20
2023-08-12T18:05:13.583Z,4.70
2023-08-12T18:07:41.030Z,4.70
2023-08-12T18:10:08.904Z,4.60
2023-08-12T18:12:36.503Z,5.00
2023-08-12T18:15:06.445Z,5.40
2023-08-12T18:17:35.769Z,4.60
2023-08-12T18:20:06.232Z,5.30
2023-08-12T18:22:33.887Z,5.90
2023-08-12T18:25:01.486Z,6.30
2023-08-12T18:27:28.903Z,5.90
2023-08-12T18:29:57.765Z,5.30
2023-08-12T18:32:28.350Z,6.40
2023-08-12T18:34:57.192Z,6.70
2023-08-12T18:37:25.736Z,6.10
2023-08-12T18:39:53.158Z,6.50
2023-08-12T18:42:21.632Z,5.60
2023-08-12T18:44:49.992Z,5.40
2023-08-12T18:47:18.305Z,5.50
2023-08-12T18:49:45.645Z,6.20
2023-08-12T18:52:13.258Z,5.60
2023-08-12T18:54:41.620Z,5.70
2023-08-12T18:57:09.027Z,5.40
2023-08-12T18:59:36.377Z,6.00
2023-08-12T19:02:04.389Z,6.30
2023-08-12T19:04:32.505Z,6.40
2023-08-12T19:07:00.172Z,7.10
2023-08-12T19:09:27.683Z,6.10
2023-08-12T19:11:55.084Z,5.70
2023-08-12T19:14:22.748Z,6.40
2023-08-12T19:16:50.114Z,5.50
2023-08-12T19:19:17.614Z,5.60
2023-08-12T19:21:45.236Z,5.70
2023-08-12T19:24:12.581Z,5.50
2023-08-12T19:26:40.904Z,4.60
2023-08-12T19:29:08.248Z,5.30
2023-08-12T19:31:35.759Z,4.90
2023-08-12T19:34:03.685Z,5.00
2023-08-12T19:36:31.038Z,4.60
2023-08-12T19:38:58.487Z,4.30
2023-08-12T19:41:27.995Z,4.30
2023-08-12T19:46:26.420Z,4.40
2023-08-12T19:48:54.736Z,4.10
2023-08-12T19:51:22.039Z,4.10
2023-08-12T19:53:50.006Z,4.00
2023-08-12T19:56:17.459Z,4.00
2023-08-12T19:58:44.864Z,3.90
2023-08-12T20:01:13.294Z,3.90
2023-08-12T20:03:40.736Z,4.20
2023-08-12T20:06:10.927Z,3.90
2023-08-12T20:08:38.270Z,4.10
2023-08-12T20:11:05.558Z,4.20
2023-08-12T20:13:32.861Z,4.10
2023-08-12T20:16:00.700Z,4.10
2023-08-12T20:18:28.090Z,3.90
2023-08-12T20:20:56.078Z,3.70
2023-08-12T20:23:23.452Z,4.00
2023-08-12T20:25:50.806Z,4.30
2023-08-12T20:28:19.316Z,4.10
2023-08-12T20:30:47.557Z,4.20
2023-08-12T20:33:14.927Z,4.50
2023-08-12T20:35:42.433Z,4.40
2023-08-12T20:38:09.949Z,4.20
2023-08-12T20:40:37.593Z,3.50
2023-08-12T20:43:05.470Z,3.60
2023-08-12T20:45:32.868Z,4.00
2023-08-12T20:48:00.322Z,3.80
2023-08-12T20:50:27.701Z,3.70
2023-08-12T20:52:55.124Z,3.90
2023-08-12T20:55:22.707Z,3.70
2023-08-12T20:57:50.204Z,3.70
2023-08-12T21:00:18.161Z,4.30
2023-08-12T21:02:46.568Z,4.00
2023-08-12T21:05:14.189Z,4.20
2023-08-12T21:07:42.122Z,3.80
2023-08-12T21:10:10.784Z,3.90
2023-08-12T21:12:38.711Z,4.20
2023-08-12T21:15:06.604Z,3.90
2023-08-12T21:17:34.042Z,3.50
2023-08-12T21:20:01.485Z,3.80
2023-08-12T21:22:28.848Z,3.60
2023-08-12T21:24:56.383Z,3.90
2023-08-12T21:27:23.758Z,3.80
2023-08-12T21:29:52.003Z,3.70
2023-08-12T21:32:19.641Z,3.50
2023-08-12T21:34:46.977Z,3.70
2023-08-12T21:37:15.618Z,3.50
2023-08-12T21:39:42.918Z,3.90
2023-08-12T21:42:10.437Z,3.20
2023-08-12T21:44:37.851Z,3.30
2023-08-12T21:47:05.280Z,3.50
2023-08-12T21:49:32.986Z,3.50
2023-08-12T21:52:00.408Z,3.60
2023-08-12T21:54:27.717Z,3.30
2023-08-12T21:56:55.153Z,3.00
2023-08-12T21:59:22.660Z,3.10
2023-08-12T22:01:50.075Z,2.90
2023-08-12T22:04:17.413Z,3.50
2023-08-12T22:06:44.777Z,3.40
2023-08-12T22:09:12.392Z,3.60
2023-08-12T22:11:39.906Z,3.10
2023-08-12T22:14:08.256Z,3.20
2023-08-12T22:16:35.620Z,3.50
2023-08-12T22:19:03.023Z,3.30
2023-08-12T22:21:30.357Z,3.00
2023-08-12T22:23:57.748Z,3.60
2023-08-12T22:26:25.075Z,3.20
2023-08-12T22:28:52.453Z,3.40
2023-08-12T22:31:19.996Z,3.10
2023-08-12T22:33:47.475Z,3.40
2023-08-12T22:36:14.834Z,3.50
2023-08-12T22:38:42.212Z,3.30
2023-08-12T22:41:09.535Z,3.80
2023-08-12T22:43:36.847Z,2.80
2023-08-12T22:46:04.217Z,3.10
2023-08-12T22:48:31.578Z,2.90
2023-08-12T22:50:58.941Z,3.50
2023-08-12T22:53:26.358Z,3.10
2023-08-12T22:55:53.707Z,3.60
2023-08-12T22:58:21.048Z,3.60
2023-08-12T23:03:13.069Z,3.70
2023-08-12T23:05:39.689Z,3.60
2023-08-12T23:08:06.732Z,3.70
2023-08-12T23:10:33.391Z,3.40
2023-08-12T23:13:01.193Z,3.40
2023-08-12T23:15:27.574Z,3.50
2023-08-12T23:17:54.205Z,3.20
2023-08-12T23:20:21.085Z,3.50
2023-08-12T23:22:47.471Z,3.50
2023-08-12T23:25:13.892Z,3.60
2023-08-12T23:27:40.487Z,3.80
2023-08-12T23:30:07.819Z,3.30
2023-08-12T23:32:34.443Z,3.80
2023-08-12T23:35:00.881Z,3.40
2023-08-12T23:37:27.581Z,3.60
2023-08-12T23:39:54.065Z,3.80
2023-08-12T23:42:20.634Z,4.50
2023-08-12T23:44:47.024Z,4.00
2023-08-12T23:47:13.600Z,4.10
2023-08-12T23:49:40.128Z,3.80
2023-08-12T23:52:07.528Z,4.00
2023-08-12T23:54:34.034Z,3.80
2023-08-12T23:57:01.473Z,3.70
2023-08-12T23:59:28.164Z,3.70
